Time;durP1;ratioP1;P1;durP2;ratioP2;P2;SDS_P1;SDS_P2;PMS_P1;PMS_P2;Temp;Humidity;BMP_temperature;BMP_pressure;BME280_temperature;BME280_humidity;BME280_pressure;Samples;Min_cycle;Max_cycle;Signal;HPM_P1;HPM_P2
2023/08/19 00:02:06;;;;;;;8.98;2.95;;;;;;;22.01;100.00;98778.28;7394235;19;20022;-84
2023/08/19 00:04:33;;;;;;;6.43;1.63;;;;;;;22.44;100.00;98786.19;7396428;19;20342;-83
2023/08/19 00:06:59;;;;;;;17.73;4.15;;;;;;;22.01;100.00;98789.63;7394931;19;20044;-84
2023/08/19 00:09:26;;;;;;;6.65;2.33;;;;;;;22.16;100.00;98783.81;7391121;19;20011;-84
2023/08/19 00:11:52;;;;;;;10.63;3.00;;;;;;;22.33;100.00;98786.66;7394825;19;20074;-84
2023/08/19 00:14:18;;;;;;;7.30;1.80;;;;;;;22.35;100.00;98794.63;7394467;19;20018;-84
2023/08/19 00:16:44;;;;;;;10.60;3.20;;;;;;;22.51;100.00;98785.34;7395577;19;20472;-84
2023/08/19 00:19:11;;;;;;;7.13;2.50;;;;;;;22.76;100.00;98776.03;7392991;19;20028;-84
2023/08/19 00:21:37;;;;;;;11.80;3.17;;;;;;;22.55;100.00;98791.34;7391045;19;20010;-84
2023/08/19 00:24:04;;;;;;;10.05;2.00;;;;;;;23.31;100.00;98781.91;7391024;19;20018;-84
2023/08/19 00:26:31;;;;;;;17.35;4.97;;;;;;;22.76;100.00;98773.91;7391884;19;20019;-83
2023/08/19 00:28:57;;;;;;;8.63;3.15;;;;;;;22.69;100.00;98768.34;7392124;19;20022;-84
2023/08/19 00:31:24;;;;;;;11.40;2.65;;;;;;;22.83;100.00;98763.81;7395462;19;20022;-84
2023/08/19 00:33:50;;;;;;;13.70;3.88;;;;;;;22.16;100.00;98761.13;7397062;19;20074;-83
2023/08/19 00:36:17;;;;;;;7.65;2.63;;;;;;;23.08;100.00;98772.97;7393522;19;20010;-84
2023/08/19 00:38:44;;;;;;;13.43;2.47;;;;;;;23.10;100.00;98770.28;7391957;19;20014;-85
2023/08/19 00:41:10;;;;;;;11.32;3.60;;;;;;;22.67;100.00;98762.50;7389711;19;20480;-83
2023/08/19 00:43:37;;;;;;;9.85;3.55;;;;;;;23.03;100.00;98765.44;7391002;19;20046;-83
2023/08/19 00:46:06;;;;;;;6.28;2.67;;;;;;;22.78;100.00;98762.00;7392324;19;20015;-83
2023/08/19 00:48:32;;;;;;;7.07;2.58;;;;;;;23.11;100.00;98763.25;7390881;19;20018;-83
2023/08/19 00:50:58;;;;;;;14.80;2.80;;;;;;;25.01;100.00;98750.13;7393020;19;20031;-84
2023/08/19 00:53:25;;;;;;;10.60;2.67;;;;;;;23.12;100.00;98759.84;7393020;19;20014;-82
2023/08/19 00:55:52;;;;;;;11.52;4.03;;;;;;;23.17;100.00;98755.97;7395883;19;20010;-82
2023/08/19 00:58:19;;;;;;;12.93;3.63;;;;;;;22.98;100.00;98752.25;7392121;19;20346;-82
2023/08/19 01:00:46;;;;;;;16.38;4.20;;;;;;;22.75;100.00;98748.97;7389004;19;20438;-81
2023/08/19 01:03:12;;;;;;;15.23;3.75;;;;;;;22.61;100.00;98760.66;7389745;19;20099;-81
2023/08/19 01:06:10;;;;;;;8.48;3.60;;;;;;;22.51;100.00;98756.97;7391364;19;20100;-82
2023/08/19 01:09:12;;;;;;;19.63;4.97;;;;;;;22.41;100.00;98763.91;7394946;19;20031;-84
2023/08/19 01:12:03;;;;;;;9.68;3.40;;;;;;;22.35;100.00;98749.94;7392984;19;20341;-82
2023/08/19 01:14:41;;;;;;;10.80;4.20;;;;;;;22.38;100.00;98754.47;7394105;19;20011;-82
2023/08/19 01:17:10;;;;;;;16.40;4.15;;;;;;;22.51;100.00;98762.66;7395138;19;20070;-81
2023/08/19 01:19:39;;;;;;;6.28;2.83;;;;;;;22.74;100.00;98756.00;7390977;19;20014;-81
2023/08/19 01:22:08;;;;;;;8.63;2.90;;;;;;;22.80;100.00;98753.63;7392264;19;20018;-81
2023/08/19 01:24:38;;;;;;;8.10;2.55;;;;;;;22.91;100.00;98759.56;7392014;19;20010;-82
2023/08/19 01:27:06;;;;;;;10.48;4.03;;;;;;;25.24;100.00;98759.66;7391880;19;20014;-81
2023/08/19 01:29:32;;;;;;;9.48;3.75;;;;;;;23.60;100.00;98768.63;7390124;19;20471;-81
2023/08/19 01:31:59;;;;;;;8.45;1.85;;;;;;;22.73;100.00;98760.16;7393827;19;20374;-81
2023/08/19 01:34:26;;;;;;;18.20;3.40;;;;;;;23.10;100.00;98758.91;7394590;19;20089;-81
2023/08/19 01:37:07;;;;;;;7.80;2.72;;;;;;;22.97;100.00;98762.88;7394738;19;20463;-81
2023/08/19 01:39:36;;;;;;;11.98;3.33;;;;;;;22.66;100.00;98763.81;7391985;19;20024;-81
2023/08/19 01:42:04;;;;;;;10.63;2.58;;;;;;;22.73;100.00;98752.41;7390790;19;20019;-81
2023/08/19 01:44:32;;;;;;;16.38;3.33;;;;;;;22.50;100.00;98743.38;7392285;19;20022;-82
2023/08/19 01:47:11;;;;;;;11.02;2.95;;;;;;;22.38;100.00;98743.13;7395474;19;20021;-81
2023/08/19 01:49:37;;;;;;;10.40;2.60;;;;;;;22.31;100.00;98740.34;7392806;19;20019;-82
2023/08/19 01:52:04;;;;;;;4.45;1.48;;;;;;;22.13;100.00;98750.97;7390263;19;20010;-81
2023/08/19 01:54:30;;;;;;;2.30;1.15;;;;;;;22.11;100.00;98735.84;7392298;19;20025;-82
2023/08/19 01:56:56;;;;;;;6.93;2.85;;;;;;;22.07;100.00;98730.59;7392089;19;20023;-81
2023/08/19 01:59:22;;;;;;;1.25;0.77;;;;;;;22.73;100.00;98734.59;7388774;19;20472;-82
2023/08/19 02:01:48;;;;;;;7.55;1.95;;;;;;;22.46;100.00;98738.09;7390896;19;20023;-81
2023/08/19 02:04:14;;;;;;;4.53;1.40;;;;;;;22.02;100.00;98728.75;7391474;19;20018;-82
2023/08/19 02:06:41;;;;;;;3.58;1.70;;;;;;;21.97;100.00;98731.81;7391081;19;20018;-82
2023/08/19 02:09:07;;;;;;;1.60;1.15;;;;;;;22.23;100.00;98739.69;7386620;19;20348;-82
2023/08/19 02:11:33;;;;;;;2.58;0.80;;;;;;;22.45;100.00;98741.53;7386100;19;20097;-82
2023/08/19 02:13:59;;;;;;;1.65;0.73;;;;;;;21.69;100.00;98750.00;7386924;19;20096;-81
2023/08/19 02:16:26;;;;;;;1.63;0.73;;;;;;;21.53;100.00;98745.78;7389192;19;20026;-82
2023/08/19 02:18:52;;;;;;;11.05;1.40;;;;;;;21.76;100.00;98744.28;7384209;19;20051;-82
2023/08/19 02:21:18;;;;;;;5.10;1.02;;;;;;;25.26;100.00;98736.25;7383862;19;20018;-82
2023/08/19 02:23:44;;;;;;;0.98;0.35;;;;;;;;;;7384550;19;20018;-82
2023/08/19 02:26:11;;;;;;;1.35;0.60;;;;;;;21.91;100.00;98732.06;7383440;19;20476;-82
2023/08/19 02:28:38;;;;;;;9.02;0.40;;;;;;;21.90;100.00;98744.75;7385842;19;20362;-82
2023/08/19 02:31:05;;;;;;;6.18;1.17;;;;;;;21.52;100.00;98755.63;7388252;19;20018;-82
2023/08/19 02:33:31;;;;;;;4.03;0.52;;;;;;;21.34;100.00;98751.19;7385421;19;20049;-82
2023/08/19 02:35:57;;;;;;;1.65;0.55;;;;;;;21.58;100.00;98753.28;7384969;19;20086;-82
2023/08/19 02:38:23;;;;;;;0.45;0.40;;;;;;;21.28;100.00;98747.84;7386355;19;20026;-81
2023/08/19 02:40:51;;;;;;;1.42;0.43;;;;;;;21.02;100.00;98744.19;7383627;19;20026;-82
2023/08/19 02:43:18;;;;;;;4.22;0.30;;;;;;;21.37;100.00;98750.81;7382968;19;20019;-81
2023/08/19 02:45:46;;;;;;;1.65;0.70;;;;;;;22.25;100.00;98739.84;7384606;19;20017;-81
2023/08/19 02:48:12;;;;;;;1.50;0.60;;;;;;;21.32;100.00;98748.94;7387274;19;20018;-82
2023/08/19 02:50:38;;;;;;;1.10;0.30;;;;;;;22.41;100.00;98735.53;7390895;19;20025;-82
2023/08/19 02:53:04;;;;;;;2.40;0.85;;;;;;;25.32;100.00;98728.88;7389605;19;20018;-82
2023/08/19 02:55:31;;;;;;;1.90;0.40;;;;;;;21.99;100.00;98746.16;7393630;19;20018;-82
2023/08/19 02:57:57;;;;;;;1.10;0.43;;;;;;;22.49;100.00;98748.28;7387965;19;20031;-82
2023/08/19 03:00:23;;;;;;;1.00;0.50;;;;;;;21.47;100.00;98750.91;7386695;19;20026;-82
2023/08/19 03:02:49;;;;;;;3.45;0.40;;;;;;;21.27;100.00;98752.03;7387892;19;20022;-81
2023/08/19 03:05:15;;;;;;;0.10;0.10;;;;;;;21.30;100.00;98750.84;7391044;19;20010;-82
2023/08/19 03:07:41;;;;;;;1.83;0.38;;;;;;;21.25;100.00;98768.81;7391749;19;20027;-82
2023/08/19 03:10:08;;;;;;;2.88;0.30;;;;;;;21.41;100.00;98764.56;7398439;19;20045;-82
2023/08/19 03:12:34;;;;;;;4.15;0.90;;;;;;;21.41;100.00;98767.41;7396214;19;20380;-82
2023/08/19 03:15:00;;;;;;;0.38;0.28;;;;;;;21.29;100.00;98763.53;7400178;19;20014;-82
2023/08/19 03:17:26;;;;;;;0.82;0.45;;;;;;;21.72;100.00;98768.69;7400746;19;20019;-82
2023/08/19 03:19:52;;;;;;;0.75;0.35;;;;;;;21.87;100.00;98774.25;7396672;19;20482;-82
2023/08/19 03:22:19;;;;;;;0.68;0.40;;;;;;;22.07;100.00;98775.22;7395763;19;20044;-82
2023/08/19 03:24:45;;;;;;;2.08;0.25;;;;;;;23.78;100.00;98787.09;7398244;19;20035;-82
2023/08/19 03:27:11;;;;;;;0.95;0.80;;;;;;;21.74;100.00;98786.59;7395730;19;20041;-82
2023/08/19 03:29:38;;;;;;;0.25;0.05;;;;;;;21.49;100.00;98785.84;7392750;19;20603;-82
2023/08/19 03:32:04;;;;;;;0.40;0.40;;;;;;;24.78;100.00;98787.63;7395992;19;20014;-82
2023/08/19 03:34:30;;;;;;;0.82;0.17;;;;;;;21.61;100.00;98791.81;7397928;19;20089;-83
2023/08/19 03:36:56;;;;;;;1.60;0.43;;;;;;;21.17;100.00;98787.94;7394696;19;20351;-83
2023/08/19 03:39:23;;;;;;;1.33;0.80;;;;;;;20.83;100.00;98786.38;7392010;19;20460;-81
2023/08/19 03:41:49;;;;;;;3.22;0.50;;;;;;;27.32;100.00;98794.59;7392393;19;20015;-82
2023/08/19 03:44:15;;;;;;;0.00;0.00;;;;;;;21.77;100.00;98808.13;7394757;19;20031;-82
2023/08/19 03:46:42;;;;;;;0.10;0.00;;;;;;;21.51;100.00;98810.75;7395750;19;20360;-82
2023/08/19 03:49:08;;;;;;;0.82;0.15;;;;;;;20.77;100.00;98819.78;7393765;19;20365;-82
2023/08/19 03:51:34;;;;;;;0.77;0.30;;;;;;;20.55;100.00;98808.53;7395369;19;20018;-82
2023/08/19 03:54:00;;;;;;;0.63;0.50;;;;;;;20.54;100.00;98807.78;7396536;19;20010;-82
2023/08/19 03:56:27;;;;;;;1.65;0.68;;;;;;;20.49;100.00;98805.91;7394773;19;20015;-82
2023/08/19 03:58:55;;;;;;;26.15;0.77;;;;;;;20.54;100.00;98804.94;7392591;19;20098;-82
2023/08/19 04:01:21;;;;;;;0.47;0.47;;;;;;;20.64;100.00;98803.03;7391966;19;20023;-82
2023/08/19 04:03:48;;;;;;;0.65;0.10;;;;;;;20.69;100.00;98807.75;7393150;19;20007;-83
2023/08/19 04:06:14;;;;;;;1.55;0.57;;;;;;;20.80;100.00;98807.31;7396355;19;20382;-82
2023/08/19 04:08:40;;;;;;;0.43;0.30;;;;;;;24.83;100.00;98812.22;7392248;19;20484;-82
2023/08/19 04:11:07;;;;;;;1.85;0.65;;;;;;;20.66;100.00;98806.03;7394422;19;20021;-82
2023/08/19 04:13:33;;;;;;;0.10;0.10;;;;;;;23.70;100.00;98814.91;7394331;19;20002;-82
2023/08/19 04:16:07;;;;;;;1.38;0.65;;;;;;;21.06;100.00;98825.94;7397835;19;20023;-82
2023/08/19 04:18:34;;;;;;;0.93;0.80;;;;;;;20.44;100.00;98832.31;7392019;19;20022;-82
2023/08/19 04:21:05;;;;;;;0.98;0.52;;;;;;;21.21;100.00;98833.59;7392021;19;20696;-82
2023/08/19 04:23:34;;;;;;;0.85;0.65;;;;;;;22.57;100.00;98834.09;7392582;19;20497;-82
2023/08/19 04:26:01;;;;;;;4.40;0.73;;;;;;;20.82;100.00;98827.31;7392876;19;20018;-82
2023/08/19 04:28:27;;;;;;;0.88;0.20;;;;;;;21.17;100.00;98828.34;7392162;19;20095;-82
2023/08/19 04:31:02;;;;;;;1.02;0.30;;;;;;;20.65;100.00;98821.53;7394571;19;20014;-82
2023/08/19 04:33:30;;;;;;;0.55;0.43;;;;;;;20.49;100.00;98822.88;7393985;19;20465;-82
2023/08/19 04:35:56;;;;;;;0.30;0.10;;;;;;;20.50;100.00;98815.16;7393428;19;20021;-82
2023/08/19 04:38:22;;;;;;;0.68;0.20;;;;;;;20.59;100.00;98815.31;7391994;19;20098;-82
2023/08/19 04:40:50;;;;;;;0.85;0.20;;;;;;;20.26;100.00;98822.16;7391607;19;20011;-82
2023/08/19 04:43:20;;;;;;;5.50;0.43;;;;;;;34.71;91.33;98810.69;7391556;19;20018;-82
2023/08/19 04:45:47;;;;;;;0.40;0.20;;;;;;;31.31;79.84;98806.50;7392546;19;20070;-82
2023/08/19 04:48:14;;;;;;;8.35;0.30;;;;;;;26.99;100.00;98811.00;7391486;19;20014;-82
2023/08/19 04:50:40;;;;;;;4.40;0.50;;;;;;;34.28;90.75;98799.75;7393446;19;20018;-82
2023/08/19 04:53:06;;;;;;;0.10;0.10;;;;;;;25.45;100.00;98810.34;7393120;19;20022;-82
2023/08/19 04:55:33;;;;;;;19.70;1.40;;;;;;;22.27;100.00;98820.22;7397767;19;20018;-82
2023/08/19 04:57:59;;;;;;;1.17;0.22;;;;;;;22.21;100.00;98828.22;7392536;19;20013;-83
2023/08/19 05:00:25;;;;;;;0.32;0.10;;;;;;;23.42;100.00;98829.72;7390516;19;20010;-82
2023/08/19 05:02:51;;;;;;;0.40;0.40;;;;;;;30.73;86.98;98826.59;7392636;19;20029;-82
2023/08/19 05:05:18;;;;;;;1.15;0.20;;;;;;;25.10;100.00;98852.66;7394713;19;20014;-83
2023/08/19 05:07:45;;;;;;;0.50;0.40;;;;;;;21.53;100.00;98859.84;7390931;19;20022;-82
2023/08/19 05:10:11;;;;;;;1.70;0.10;;;;;;;24.22;100.00;98860.19;7392779;19;20007;-82
2023/08/19 05:12:37;;;;;;;0.20;0.00;;;;;;;23.15;100.00;98865.84;7392270;19;20056;-82
2023/08/19 05:15:04;;;;;;;1.23;0.20;;;;;;;32.44;96.07;98840.59;7395322;19;20039;-82
2023/08/19 05:17:30;;;;;;;0.10;0.00;;;;;;;42.13;49.15;98839.56;7395906;19;20021;-82
2023/08/19 05:19:57;;;;;;;2.20;0.13;;;;;;;43.02;43.62;98842.03;7389535;19;20015;-82
2023/08/19 05:22:23;;;;;;;0.10;0.05;;;;;;;42.16;44.28;98838.13;7390523;19;20030;-82
2023/08/19 05:24:49;;;;;;;1.33;0.52;;;;;;;43.71;39.97;98836.94;7394483;19;20014;-82
2023/08/19 05:27:16;;;;;;;6.30;0.40;;;;;;;43.94;38.46;98839.06;7389797;19;20019;-82
2023/08/19 05:29:42;;;;;;;0.60;0.20;;;;;;;26.78;100.00;98866.06;7390350;19;20018;-82
2023/08/19 05:32:08;;;;;;;0.22;0.17;;;;;;;23.54;100.00;98867.63;7392527;19;20015;-82
2023/08/19 05:34:34;;;;;;;1.67;0.98;;;;;;;22.18;100.00;98873.97;7394161;19;20032;-82
2023/08/19 05:37:04;;;;;;;1.85;0.43;;;;;;;21.34;100.00;98875.81;7392547;19;20360;-82
2023/08/19 05:39:30;;;;;;;0.88;0.57;;;;;;;20.65;100.00;98880.94;7389106;19;20078;-83
2023/08/19 05:41:56;;;;;;;5.60;0.47;;;;;;;20.33;100.00;98877.97;7389990;19;20011;-82
2023/08/19 05:44:22;;;;;;;0.60;0.22;;;;;;;20.26;100.00;98873.81;7392431;19;20455;-82
2023/08/19 05:46:50;;;;;;;0.82;0.52;;;;;;;20.28;100.00;98878.91;7392326;19;20511;-82
2023/08/19 05:49:16;;;;;;;0.25;0.10;;;;;;;20.05;100.00;98892.25;7390545;19;20552;-82
2023/08/19 05:51:42;;;;;;;0.95;0.43;;;;;;;20.13;100.00;98893.00;7392562;19;20014;-82
2023/08/19 05:54:08;;;;;;;8.38;0.20;;;;;;;21.77;100.00;98890.31;7394181;19;20018;-82
2023/08/19 05:56:34;;;;;;;0.10;0.10;;;;;;;23.33;100.00;98902.19;7393097;19;20033;-82
2023/08/19 05:59:00;;;;;;;0.40;0.20;;;;;;;21.58;100.00;98906.31;7389249;19;20017;-82
2023/08/19 06:01:26;;;;;;;0.10;0.00;;;;;;;22.80;100.00;98919.06;7391375;19;20018;-82
2023/08/19 06:03:53;;;;;;;4.07;0.17;;;;;;;21.32;100.00;98935.88;7390435;19;20082;-82
2023/08/19 06:06:19;;;;;;;0.10;0.10;;;;;;;21.40;100.00;98938.69;7394570;19;20411;-82
2023/08/19 06:08:45;;;;;;;5.28;0.65;;;;;;;21.62;100.00;98946.34;7388976;19;20431;-82
2023/08/19 06:11:14;;;;;;;0.25;0.08;;;;;;;23.47;100.00;98950.16;7388797;19;20396;-82
2023/08/19 06:13:40;;;;;;;2.28;0.73;;;;;;;21.35;100.00;98956.66;7389354;19;20003;-82
2023/08/19 06:16:06;;;;;;;8.50;1.83;;;;;;;22.02;100.00;98964.13;7389553;19;20035;-82
2023/08/19 06:18:33;;;;;;;0.20;0.20;;;;;;;21.52;100.00;98963.19;7389114;19;20015;-82
2023/08/19 06:21:00;;;;;;;0.50;0.20;;;;;;;32.74;100.00;98960.19;7388975;19;20409;-82
2023/08/19 06:23:26;;;;;;;0.20;0.10;;;;;;;26.29;100.00;98969.75;7390802;19;20094;-82
2023/08/19 06:25:53;;;;;;;0.15;0.15;;;;;;;36.40;83.38;98958.19;7388646;19;20017;-83
2023/08/19 06:28:23;;;;;;;0.95;0.22;;;;;;;32.68;67.93;98953.41;7387848;19;20042;-82
2023/08/19 06:30:50;;;;;;;1.30;0.38;;;;;;;33.60;95.76;98956.72;7390581;19;20047;-83
2023/08/19 06:33:17;;;;;;;1.30;0.32;;;;;;;44.53;42.80;98948.28;7391174;19;20018;-82
2023/08/19 06:35:48;;;;;;;0.55;0.20;;;;;;;43.50;42.57;98950.59;7390321;19;20014;-82
2023/08/19 06:38:19;;;;;;;1.65;0.73;;;;;;;42.41;38.71;98953.13;7390825;19;20019;-82
2023/08/19 06:40:55;;;;;;;0.85;0.10;;;;;;;26.36;100.00;98977.34;7388012;19;20387;-82
2023/08/19 06:43:26;;;;;;;4.63;0.75;;;;;;;27.77;100.00;98964.13;7396670;19;20046;-82
2023/08/19 06:45:55;;;;;;;0.28;0.20;;;;;;;38.83;61.11;98960.09;7399245;19;20018;-82
2023/08/19 06:48:22;;;;;;;3.38;0.30;;;;;;;44.09;44.55;98954.25;7395134;19;20009;-82
2023/08/19 06:50:52;;;;;;;6.53;1.33;;;;;;;27.13;100.00;98977.00;7397712;19;20017;-82
2023/08/19 06:53:19;;;;;;;5.97;0.30;;;;;;;30.19;93.19;98973.81;7396884;19;20014;-82
2023/08/19 06:56:01;;;;;;;0.90;0.10;;;;;;;26.51;100.00;98977.00;7397748;19;20018;-88
2023/08/19 06:58:31;;;;;;;0.28;0.25;;;;;;;27.41;100.00;98973.19;7397051;19;20021;-82
2023/08/19 07:01:03;;;;;;;0.33;0.30;;;;;;;32.29;74.98;98984.72;7396469;19;20332;-83
2023/08/19 07:03:34;;;;;;;0.50;0.10;;;;;;;25.18;100.00;98992.16;7396187;19;20279;-84
2023/08/19 07:06:02;;;;;;;;;;;;;;;22.80;100.00;99014.84;7397335;19;20106;-82
2023/08/19 07:08:30;;;;;;;2.30;0.15;;;;;;;22.18;100.00;99019.41;7395675;19;20268;-83
2023/08/19 07:11:02;;;;;;;0.20;0.20;;;;;;;32.83;100.00;98996.63;7397970;19;20045;-82
2023/08/19 07:13:29;;;;;;;0.10;0.10;;;;;;;27.33;100.00;99004.09;7396040;19;20089;-82
2023/08/19 07:16:00;;;;;;;1.75;0.47;;;;;;;22.29;100.00;99018.94;7397165;19;20040;-82
2023/08/19 07:18:30;;;;;;;0.30;0.10;;;;;;;23.58;100.00;99023.56;7395939;19;20019;-82
2023/08/19 07:20:59;;;;;;;0.65;0.13;;;;;;;22.48;100.00;99024.13;7396437;19;20018;-83
2023/08/19 07:23:25;;;;;;;0.10;0.10;;;;;;;21.97;100.00;99027.47;7396820;19;20010;-83
2023/08/19 07:25:52;;;;;;;0.57;0.15;;;;;;;23.52;100.00;99032.31;7397094;19;20555;-82
2023/08/19 07:28:23;;;;;;;5.03;0.93;;;;;;;22.59;100.00;99030.13;7393267;19;20014;-82
2023/08/19 07:30:50;;;;;;;1.23;0.10;;;;;;;21.94;100.00;99039.94;7395199;19;20014;-83
2023/08/19 07:33:16;;;;;;;1.60;0.47;;;;;;;21.78;100.00;99044.16;7396527;19;20483;-82
2023/08/19 07:35:44;;;;;;;0.35;0.25;;;;;;;21.47;100.00;99048.38;7395073;19;20471;-82
2023/08/19 07:38:10;;;;;;;6.43;0.73;;;;;;;21.45;100.00;99046.13;7396342;19;20475;-83
2023/08/19 07:40:36;;;;;;;2.67;0.30;;;;;;;21.76;100.00;99049.63;7393613;19;20018;-83
2023/08/19 07:43:03;;;;;;;0.43;0.17;;;;;;;21.42;100.00;99046.53;7392608;19;20034;-83
2023/08/19 07:45:29;;;;;;;0.00;0.00;;;;;;;21.24;100.00;99039.19;7398236;19;20030;-81
2023/08/19 07:47:55;;;;;;;0.40;0.30;;;;;;;21.20;100.00;99053.00;7393419;19;20018;-82
2023/08/19 07:50:22;;;;;;;0.15;0.00;;;;;;;20.67;100.00;99045.22;7394720;19;20757;-82
2023/08/19 07:52:48;;;;;;;4.85;0.40;;;;;;;21.08;100.00;99056.22;7393229;19;20022;-82
2023/08/19 07:55:14;;;;;;;0.20;0.10;;;;;;;21.12;100.00;99069.97;7398425;19;20022;-82
2023/08/19 07:57:42;;;;;;;3.95;0.75;;;;;;;21.20;100.00;99069.97;7394101;19;20018;-82
2023/08/19 08:00:09;;;;;;;0.57;0.40;;;;;;;22.33;100.00;99073.22;7392833;19;20409;-82
2023/08/19 08:02:41;;;;;;;0.20;0.20;;;;;;;24.13;100.00;99065.78;7393541;19;20393;-81
2023/08/19 08:05:09;;;;;;;5.85;0.43;;;;;;;22.55;100.00;99075.16;7397699;19;20029;-81
2023/08/19 08:07:35;;;;;;;6.22;0.40;;;;;;;22.84;100.00;99094.69;7393046;19;20017;-81
2023/08/19 08:10:03;;;;;;;0.32;0.20;;;;;;;23.38;100.00;99090.84;7396549;19;20034;-81
2023/08/19 08:12:30;;;;;;;0.43;0.10;;;;;;;23.05;100.00;99095.06;7397408;19;20427;-80
2023/08/19 08:14:58;;;;;;;1.90;0.10;;;;;;;21.65;100.00;99103.91;7397833;19;20021;-81
2023/08/19 08:17:24;;;;;;;0.95;0.40;;;;;;;21.48;100.00;99101.66;7400132;19;20013;-80
2023/08/19 08:19:50;;;;;;;0.17;0.17;;;;;;;21.87;100.00;99100.28;7390952;19;20010;-82
2023/08/19 08:22:17;;;;;;;0.10;0.10;;;;;;;29.62;100.00;99089.66;7393017;19;20011;-82
2023/08/19 08:24:43;;;;;;;0.10;0.00;;;;;;;22.75;100.00;99109.50;7395969;19;20007;-81
2023/08/19 08:27:09;;;;;;;4.30;0.10;;;;;;;22.10;100.00;99112.28;7391173;19;20015;-81
2023/08/19 08:29:36;;;;;;;0.00;0.00;;;;;;;21.64;100.00;99102.38;7391478;19;20235;-54
2023/08/19 08:32:02;;;;;;;2.20;0.40;;;;;;;21.48;100.00;99112.25;7393895;19;20018;-83
2023/08/19 08:34:28;;;;;;;0.65;0.20;;;;;;;22.35;100.00;99107.44;7394576;19;20026;-83
2023/08/19 08:36:55;;;;;;;0.13;0.13;;;;;;;26.13;100.00;99112.06;7392862;19;20088;-83
2023/08/19 08:39:21;;;;;;;0.10;0.10;;;;;;;24.73;100.00;99116.16;7393505;19;20011;-84
2023/08/19 08:41:47;;;;;;;0.10;0.10;;;;;;;33.49;95.03;99114.34;7392962;19;20007;-83
2023/08/19 08:44:14;;;;;;;0.08;0.00;;;;;;;24.06;100.00;99119.31;7390694;19;20049;-83
2023/08/19 08:46:41;;;;;;;3.70;0.20;;;;;;;24.50;100.00;99116.47;7396984;19;20179;-83
2023/08/19 08:49:08;;;;;;;0.17;0.10;;;;;;;22.57;100.00;99134.94;7391365;19;20007;-83
2023/08/19 08:51:34;;;;;;;0.85;0.63;;;;;;;21.84;100.00;99112.75;7393566;19;20027;-82
2023/08/19 08:54:01;;;;;;;0.08;0.00;;;;;;;21.70;100.00;99128.47;7396187;19;20030;-82
2023/08/19 08:56:27;;;;;;;0.15;0.13;;;;;;;21.61;100.00;99123.38;7394029;19;20011;-82
2023/08/19 08:58:53;;;;;;;0.13;0.13;;;;;;;21.60;100.00;99136.00;7393384;19;20018;-81
2023/08/19 09:01:22;;;;;;;0.10;0.10;;;;;;;21.69;100.00;99138.28;7393362;19;20025;-82
2023/08/19 09:03:50;;;;;;;0.38;0.20;;;;;;;21.75;100.00;99136.00;7393900;19;20467;-82
2023/08/19 09:06:18;;;;;;;0.25;0.20;;;;;;;21.92;100.00;99127.66;7394566;19;20019;-83
2023/08/19 09:08:56;;;;;;;14.27;0.47;;;;;;;25.77;100.00;99128.53;7391283;19;20026;-83
2023/08/19 09:11:25;;;;;;;2.47;0.20;;;;;;;24.45;100.00;99136.69;7394347;19;20732;-82
2023/08/19 09:14:07;;;;;;;0.10;0.10;;;;;;;22.74;100.00;99151.31;7393023;19;20490;-82
2023/08/19 09:16:33;;;;;;;0.20;0.10;;;;;;;22.71;100.00;99155.34;7394790;19;20017;-82
2023/08/19 09:18:59;;;;;;;0.20;0.10;;;;;;;28.07;100.00;99146.47;7390961;19;20049;-82
2023/08/19 09:21:26;;;;;;;1.08;0.20;;;;;;;23.91;100.00;99158.53;7390146;19;20479;-82
2023/08/19 09:23:52;;;;;;;0.20;0.20;;;;;;;29.28;100.00;99154.34;7395109;19;20051;-83
2023/08/19 09:26:18;;;;;;;0.47;0.10;;;;;;;41.98;53.08;99141.56;7390528;19;20037;-79
2023/08/19 09:28:44;;;;;;;0.08;0.08;;;;;;;28.52;100.00;99170.94;7391501;19;20490;-82
2023/08/19 09:31:21;;;;;;;0.40;0.00;;;;;;;29.92;93.92;99169.75;7392668;19;20793;-81
2023/08/19 09:33:48;;;;;;;0.05;0.00;;;;;;;26.52;100.00;99178.44;7391742;19;20011;-80
2023/08/19 09:36:14;;;;;;;0.20;0.20;;;;;;;28.05;100.00;99185.69;7392724;19;20022;-81
2023/08/19 09:38:41;;;;;;;0.30;0.10;;;;;;;23.94;100.00;99189.41;7392759;19;20046;-82
2023/08/19 09:41:07;;;;;;;0.40;0.15;;;;;;;23.38;100.00;99181.78;7391687;19;20018;-81
2023/08/19 09:43:38;;;;;;;0.90;0.00;;;;;;;23.29;100.00;99185.22;7391608;19;20007;-85
2023/08/19 09:46:04;;;;;;;0.00;0.00;;;;;;;23.19;100.00;99192.88;7391500;19;20029;-85
2023/08/19 09:48:30;;;;;;;0.90;0.45;;;;;;;23.30;100.00;99187.47;7391171;19;20023;-84
2023/08/19 09:50:56;;;;;;;4.50;0.10;;;;;;;23.53;100.00;99197.94;7392844;19;20043;-84
2023/08/19 09:53:26;;;;;;;0.00;0.00;;;;;;;23.77;100.00;99194.31;7391332;19;20412;-82
2023/08/19 09:55:53;;;;;;;0.10;0.00;;;;;;;23.85;100.00;99195.75;7392456;19;20007;-82
2023/08/19 09:58:19;;;;;;;0.10;0.10;;;;;;;23.95;100.00;99188.06;7390402;19;20022;-81
2023/08/19 10:00:46;;;;;;;2.28;0.35;;;;;;;23.85;100.00;99200.69;7388847;19;20464;-81
2023/08/19 10:03:13;;;;;;;0.28;0.20;;;;;;;23.84;100.00;99202.78;7390539;19;20025;-82
2023/08/19 10:05:40;;;;;;;6.50;0.20;;;;;;;23.93;100.00;99202.09;7393667;19;20029;-81
2023/08/19 10:08:10;;;;;;;0.10;0.00;;;;;;;37.58;85.13;99192.56;7387808;19;20032;-81
2023/08/19 10:10:41;;;;;;;0.10;0.10;;;;;;;35.05;85.51;99199.75;7392582;19;20018;-82
2023/08/19 10:13:08;;;;;;;;;;;;;;;26.19;100.00;99209.56;7394505;19;20031;-83
2023/08/19 10:15:36;;;;;;;0.10;0.10;;;;;;;24.96;100.00;99218.41;7394392;19;20369;-82
2023/08/19 10:18:09;;;;;;;4.22;0.10;;;;;;;24.49;100.00;99216.72;7388765;19;20086;-82
2023/08/19 10:20:37;;;;;;;1.15;0.43;;;;;;;24.56;100.00;99221.56;7387700;19;20019;-81
2023/08/19 10:23:06;;;;;;;1.13;0.30;;;;;;;30.60;97.04;99229.78;7390048;19;20026;-82
2023/08/19 10:25:33;;;;;;;0.10;0.00;;;;;;;25.43;100.00;99221.50;7393873;19;20078;-81
2023/08/19 10:28:07;;;;;;;1.23;0.10;;;;;;;25.06;100.00;99234.19;7389555;19;20026;-82
2023/08/19 10:30:34;;;;;;;0.10;0.10;;;;;;;25.32;100.00;99239.13;7391425;19;20015;-83
2023/08/19 10:33:24;;;;;;;5.95;0.55;;;;;;;25.01;100.00;99235.25;7390677;19;20019;-82
2023/08/19 10:36:07;;;;;;;0.55;0.20;;;;;;;25.06;100.00;99237.06;7385755;19;20116;-82
2023/08/19 10:38:47;;;;;;;0.17;0.08;;;;;;;25.27;100.00;99239.44;7387447;19;20024;-81
2023/08/19 10:41:18;;;;;;;4.13;0.10;;;;;;;25.49;100.00;99256.19;7389561;19;20634;-82
2023/08/19 10:43:53;;;;;;;2.30;0.75;;;;;;;25.32;100.00;99239.13;7389915;19;20022;-81
2023/08/19 10:46:19;;;;;;;1.95;0.10;;;;;;;26.17;100.00;99257.94;7389809;19;20037;-82
2023/08/19 10:48:46;;;;;;;0.43;0.00;;;;;;;34.64;84.17;99245.81;7388245;19;20078;-81
2023/08/19 10:51:12;;;;;;;0.30;0.20;;;;;;;31.75;82.57;99257.13;7390030;19;20021;-81
2023/08/19 10:53:47;;;;;;;1.65;0.10;;;;;;;27.40;100.00;99258.44;7392225;19;20015;-81
2023/08/19 10:56:14;;;;;;;0.50;0.10;;;;;;;25.72;100.00;99264.41;7391628;19;20048;-81
2023/08/19 10:58:42;;;;;;;0.08;0.00;;;;;;;26.67;100.00;99260.97;7388104;19;20050;-82
2023/08/19 11:01:08;;;;;;;0.00;0.00;;;;;;;29.49;100.00;99268.22;7389193;19;20469;-82
2023/08/19 11:03:34;;;;;;;0.00;0.00;;;;;;;44.31;49.68;99256.72;7388197;19;20119;-82
2023/08/19 11:06:05;;;;;;;0.40;0.00;;;;;;;41.89;46.51;99262.94;7391070;19;20475;-82
2023/08/19 11:08:41;;;;;;;0.55;0.17;;;;;;;37.78;46.49;99268.72;7386566;19;20043;-82
2023/08/19 11:11:07;;;;;;;0.85;0.28;;;;;;;29.27;95.64;99275.44;7389601;19;20018;-82
2023/08/19 11:13:34;;;;;;;0.38;0.22;;;;;;;27.15;100.00;99277.31;7390526;19;20002;-82
2023/08/19 11:16:06;;;;;;;1.85;0.10;;;;;;;26.50;100.00;99289.69;7390713;19;20050;-82
2023/08/19 11:18:38;;;;;;;0.17;0.08;;;;;;;33.87;66.30;99277.13;7388145;19;20025;-81
2023/08/19 11:21:04;;;;;;;0.20;0.00;;;;;;;31.83;77.05;99286.38;7387413;19;20034;-81
2023/08/19 11:23:32;;;;;;;0.10;0.00;;;;;;;30.89;83.69;99299.06;7387837;19;20010;-82
2023/08/19 11:25:58;;;;;;;0.10;0.00;;;;;;;27.28;100.00;99316.88;7386869;19;20015;-81
2023/08/19 11:28:25;;;;;;;0.10;0.10;;;;;;;26.68;100.00;99310.28;7392048;19;20018;-81
2023/08/19 11:30:52;;;;;;;0.10;0.10;;;;;;;27.76;100.00;99323.22;7397061;19;20361;-83